createdAt,value
2022-11-08T00:00:50.618Z,80.63
2022-11-08T00:01:54.422Z,66.68
2022-11-08T00:02:59.039Z,71.78
2022-11-08T00:04:07.344Z,64.30
2022-11-08T00:05:29.741Z,49.25
2022-11-08T00:06:51.619Z,75.82
2022-11-08T00:08:13.323Z,81.78
2022-11-08T00:09:35.096Z,51.38
2022-11-08T00:10:56.674Z,53.60
2022-11-08T00:12:18.297Z,68.70
2022-11-08T00:13:40.059Z,104.75
2022-11-08T00:14:44.391Z,58.03
2022-11-08T00:15:47.467Z,52.03
2022-11-08T00:16:51.228Z,69.47
2022-11-08T00:17:54.405Z,138.32
2022-11-08T00:18:58.012Z,91.68
2022-11-08T00:20:01.275Z,104.30
2022-11-08T00:21:04.870Z,94.43
2022-11-08T00:22:08.006Z,54.75
2022-11-08T00:23:11.226Z,91.03
2022-11-08T00:24:14.838Z,99.70
2022-11-08T00:25:18.187Z,58.72
2022-11-08T00:26:21.191Z,50.80
2022-11-08T00:27:24.972Z,71.82
2022-11-08T00:28:27.258Z,102.25
2022-11-08T00:29:29.537Z,73.35
2022-11-08T00:30:32.036Z,88.53
2022-11-08T00:31:34.507Z,61.03
2022-11-08T00:32:36.949Z,91.07
2022-11-08T00:33:39.414Z,114.88
2022-11-08T00:34:42.313Z,77.18
2022-11-08T00:35:44.834Z,110.63
2022-11-08T00:36:47.469Z,86.07
2022-11-08T00:37:49.806Z,93.32
2022-11-08T00:38:52.218Z,87.70
2022-11-08T00:39:54.638Z,84.50
2022-11-08T00:40:57.387Z,91.75
2022-11-08T00:41:59.790Z,79.40
2022-11-08T00:43:02.078Z,85.63
2022-11-08T00:44:04.784Z,77.53
2022-11-08T00:45:07.668Z,63.80
2022-11-08T00:46:10.111Z,118.30
2022-11-08T00:47:12.835Z,54.95
2022-11-08T00:48:15.481Z,59.33
2022-11-08T00:49:21.605Z,79.35
2022-11-08T00:50:24.394Z,57.83
2022-11-08T00:51:27.186Z,65.13
2022-11-08T00:52:29.506Z,62.55
2022-11-08T00:53:32.038Z,64.18
2022-11-08T00:54:34.402Z,144.40
2022-11-08T00:55:36.724Z,84.93
2022-11-08T00:56:39.356Z,63.40
2022-11-08T00:57:58.649Z,55.10
2022-11-08T00:59:02.526Z,68.20
2022-11-08T01:00:05.211Z,64.60
2022-11-08T01:01:13.940Z,64.05
2022-11-08T01:02:17.235Z,91.88
2022-11-08T01:03:19.806Z,104.10
2022-11-08T01:04:22.285Z,53.78
2022-11-08T01:05:24.658Z,65.60
2022-11-08T01:06:27.385Z,80.30
2022-11-08T01:07:29.912Z,69.53
2022-11-08T01:08:34.776Z,93.32
2022-11-08T01:09:37.296Z,74.15
2022-11-08T01:10:44.623Z,65.80
2022-11-08T01:11:48.012Z,66.18
2022-11-08T01:12:50.359Z,83.05
2022-11-08T01:13:56.051Z,87.90
2022-11-08T01:14:59.762Z,79.78
2022-11-08T01:16:12.562Z,74.38
2022-11-08T01:17:14.995Z,55.38
2022-11-08T01:18:18.001Z,59.95
2022-11-08T01:19:20.615Z,57.63
2022-11-08T01:20:23.828Z,77.88
2022-11-08T01:21:27.144Z,62.70
2022-11-08T01:22:29.521Z,65.10
2022-11-08T01:23:32.412Z,94.15
2022-11-08T01:24:34.779Z,59.15
2022-11-08T01:25:39.031Z,66.07
2022-11-08T01:26:41.492Z,84.70
2022-11-08T01:27:44.283Z,77.78
2022-11-08T01:28:47.643Z,64.35
2022-11-08T01:30:09.147Z,71.90
2022-11-08T01:31:14.074Z,77.55
2022-11-08T01:32:16.348Z,71.85
2022-11-08T01:33:21.035Z,85.13
2022-11-08T01:34:23.473Z,67.18
2022-11-08T01:35:25.858Z,84.38
2022-11-08T01:36:29.186Z,87.25
2022-11-08T01:37:31.679Z,75.82
2022-11-08T01:38:36.671Z,86.53
2022-11-08T01:39:38.966Z,97.10
2022-11-08T01:40:48.775Z,66.60
2022-11-08T01:41:51.117Z,69.43
2022-11-08T01:42:53.926Z,95.15
2022-11-08T01:43:58.326Z,75.28
2022-11-08T01:45:06.451Z,76.90
2022-11-08T01:46:34.994Z,66.38
2022-11-08T01:47:38.181Z,69.40
2022-11-08T01:48:47.325Z,77.80
2022-11-08T01:49:51.607Z,68.28
2022-11-08T01:50:56.322Z,65.07
2022-11-08T01:52:20.866Z,72.47
2022-11-08T01:53:24.161Z,61.92
2022-11-08T01:54:35.362Z,65.15
2022-11-08T01:55:38.786Z,68.43
2022-11-08T01:56:42.024Z,76.95
2022-11-08T01:57:47.655Z,84.50
2022-11-08T01:58:52.988Z,60.95
2022-11-08T01:59:59.126Z,61.70
2022-11-08T02:01:02.885Z,74.93
2022-11-08T02:02:06.024Z,71.32
2022-11-08T02:03:12.599Z,59.95
2022-11-08T02:04:17.061Z,68.05
2022-11-08T02:05:26.317Z,70.57
2022-11-08T02:06:31.452Z,62.13
2022-11-08T02:07:34.616Z,64.50
2022-11-08T02:08:42.410Z,59.60
2022-11-08T02:09:47.170Z,63.22
2022-11-08T02:10:52.476Z,63.80
2022-11-08T02:11:56.173Z,61.30
2022-11-08T02:13:04.757Z,55.85
2022-11-08T02:14:08.363Z,54.40
2022-11-08T02:15:12.341Z,63.28
2022-11-08T02:18:23.136Z,53.58
2022-11-08T02:19:40.385Z,57.85
2022-11-08T02:20:54.944Z,72.20
2022-11-08T02:22:03.689Z,62.05
2022-11-08T02:23:15.268Z,60.08
2022-11-08T02:24:18.139Z,78.50
2022-11-08T02:25:20.488Z,70.18
2022-11-08T02:26:28.517Z,87.25
2022-11-08T02:27:30.818Z,64.85
2022-11-08T02:28:45.984Z,71.28
2022-11-08T02:29:53.814Z,65.07
2022-11-08T02:30:56.491Z,59.88
2022-11-08T02:32:00.626Z,63.50
2022-11-08T02:33:20.847Z,65.03
2022-11-08T02:34:30.803Z,53.80
2022-11-08T02:35:35.998Z,56.15
2022-11-08T02:36:38.432Z,56.40
2022-11-08T02:37:41.443Z,55.50
2022-11-08T02:38:49.270Z,72.85
2022-11-08T02:39:51.535Z,69.38
2022-11-08T02:40:56.267Z,59.28
2022-11-08T02:41:58.978Z,63.22
2022-11-08T02:43:04.255Z,59.47
2022-11-08T02:44:06.868Z,61.17
2022-11-08T02:45:09.868Z,62.50
2022-11-08T02:46:12.459Z,65.03
2022-11-08T02:47:15.753Z,62.30
2022-11-08T02:48:20.069Z,64.35
2022-11-08T02:49:23.371Z,61.20
2022-11-08T02:50:25.789Z,57.75
2022-11-08T02:51:28.455Z,61.15
2022-11-08T02:52:30.954Z,61.88
2022-11-08T02:53:33.389Z,59.70
2022-11-08T02:54:35.859Z,64.25
2022-11-08T02:55:38.407Z,53.85
2022-11-08T02:56:41.406Z,50.95
2022-11-08T02:57:43.743Z,62.88
2022-11-08T02:58:46.299Z,56.33
2022-11-08T02:59:49.462Z,57.75
2022-11-08T03:00:51.894Z,61.17
2022-11-08T03:01:54.465Z,60.05
2022-11-08T03:02:57.887Z,62.28
2022-11-08T03:04:00.466Z,60.33
2022-11-08T03:05:02.971Z,55.50
2022-11-08T03:06:05.551Z,59.00
2022-11-08T03:07:08.228Z,61.22
2022-11-08T03:08:10.638Z,66.47
2022-11-08T03:09:14.004Z,69.18
2022-11-08T03:10:17.355Z,59.42
2022-11-08T03:11:19.752Z,58.20
2022-11-08T03:12:22.344Z,54.67
2022-11-08T03:13:24.638Z,61.17
2022-11-08T03:14:27.033Z,61.58
2022-11-08T03:15:30.241Z,57.53
2022-11-08T03:16:32.620Z,57.00
2022-11-08T03:17:35.176Z,58.10
2022-11-08T03:18:37.622Z,60.00
2022-11-08T03:19:39.955Z,65.57
2022-11-08T03:20:42.330Z,60.38
2022-11-08T03:21:44.676Z,56.05
2022-11-08T03:22:47.482Z,57.08
2022-11-08T03:23:50.082Z,63.33
2022-11-08T03:24:52.548Z,57.42
2022-11-08T03:26:01.216Z,54.78
2022-11-08T03:27:04.198Z,53.78
2022-11-08T03:28:08.684Z,60.85
2022-11-08T03:29:11.120Z,54.80
2022-11-08T03:30:14.957Z,56.60
2022-11-08T03:31:17.659Z,61.47
2022-11-08T03:32:20.136Z,56.25
2022-11-08T03:33:22.807Z,59.92
2022-11-08T03:34:25.432Z,55.88
2022-11-08T03:35:27.936Z,55.40
2022-11-08T03:36:30.478Z,47.75
2022-11-08T03:37:32.881Z,50.05
2022-11-08T03:38:35.430Z,54.85
2022-11-08T03:39:37.762Z,51.08
2022-11-08T03:40:40.118Z,53.13
2022-11-08T03:41:42.539Z,52.88
2022-11-08T03:42:45.785Z,50.90
2022-11-08T03:43:48.302Z,53.08
2022-11-08T03:44:51.080Z,51.10
2022-11-08T03:45:53.454Z,52.53
2022-11-08T03:46:55.992Z,57.75
2022-11-08T03:47:58.710Z,58.78
2022-11-08T03:49:01.173Z,56.35
2022-11-08T03:50:03.994Z,54.83
2022-11-08T03:51:06.518Z,58.15
2022-11-08T03:52:08.981Z,51.40
2022-11-08T03:53:11.362Z,51.00
2022-11-08T03:54:14.013Z,51.22
2022-11-08T03:55:17.931Z,49.47
2022-11-08T03:56:20.392Z,50.38
2022-11-08T03:57:23.659Z,44.85
2022-11-08T03:58:26.546Z,50.67
2022-11-08T03:59:29.273Z,49.15
2022-11-08T04:00:32.358Z,40.47
2022-11-08T04:01:34.959Z,42.67
2022-11-08T04:02:37.849Z,47.40
2022-11-08T04:03:40.293Z,45.90
2022-11-08T04:04:42.812Z,44.40
2022-11-08T04:05:45.287Z,49.25
2022-11-08T04:06:47.836Z,44.55
2022-11-08T04:07:50.203Z,44.22
2022-11-08T04:08:52.812Z,49.20
2022-11-08T04:09:56.007Z,41.42
2022-11-08T04:11:22.040Z,47.10
2022-11-08T04:12:43.162Z,41.22
2022-11-08T04:14:07.319Z,48.13
2022-11-08T04:15:16.559Z,46.75
2022-11-08T04:16:18.961Z,49.67
2022-11-08T04:17:41.276Z,52.15
2022-11-08T04:19:02.626Z,46.45
2022-11-08T04:20:23.988Z,47.85
2022-11-08T04:21:26.379Z,45.65
2022-11-08T04:22:28.757Z,40.70
2022-11-08T04:23:32.561Z,50.30
2022-11-08T04:24:34.965Z,49.35
2022-11-08T04:25:37.350Z,42.50
2022-11-08T04:26:41.280Z,45.80
2022-11-08T04:27:44.016Z,47.47
2022-11-08T04:28:48.827Z,46.25
2022-11-08T04:29:51.281Z,42.63
2022-11-08T04:30:55.488Z,47.58
2022-11-08T04:31:58.002Z,46.10
2022-11-08T04:33:01.897Z,44.92
2022-11-08T04:34:04.235Z,46.83
2022-11-08T04:35:06.908Z,42.83
2022-11-08T04:36:17.280Z,48.95
2022-11-08T04:37:19.676Z,43.65
2022-11-08T04:38:22.419Z,40.25
2022-11-08T04:39:25.036Z,44.00
2022-11-08T04:40:28.598Z,41.97
2022-11-08T04:41:30.889Z,49.97
2022-11-08T04:42:33.217Z,46.28
2022-11-08T04:43:35.760Z,45.00
2022-11-08T04:44:38.113Z,42.95
2022-11-08T04:45:40.605Z,46.13
2022-11-08T04:46:43.486Z,46.72
2022-11-08T04:47:48.446Z,49.25
2022-11-08T04:48:55.362Z,48.08
2022-11-08T04:49:58.344Z,46.70
2022-11-08T04:51:18.426Z,48.58
2022-11-08T04:52:21.308Z,50.70
2022-11-08T04:53:23.854Z,49.83
2022-11-08T04:54:26.388Z,47.95
2022-11-08T04:55:29.073Z,47.92
2022-11-08T04:56:32.484Z,52.10
2022-11-08T04:57:35.493Z,50.08
2022-11-08T04:58:44.636Z,51.20
2022-11-08T04:59:47.146Z,52.10
2022-11-08T05:00:49.434Z,48.55
2022-11-08T05:01:51.827Z,54.97
2022-11-08T05:02:55.117Z,47.17
2022-11-08T05:03:58.581Z,58.13
2022-11-08T05:05:00.962Z,52.70
2022-11-08T05:06:10.918Z,55.13
2022-11-08T05:07:13.773Z,52.05
2022-11-08T05:08:19.392Z,46.28
2022-11-08T05:09:22.797Z,49.28
2022-11-08T05:10:25.603Z,56.03
2022-11-08T05:11:30.026Z,51.13
2022-11-08T05:12:32.579Z,52.05
2022-11-08T05:13:35.879Z,46.92
2022-11-08T05:14:38.327Z,51.03
2022-11-08T05:15:40.902Z,49.17
2022-11-08T05:16:43.532Z,44.35
2022-11-08T05:17:45.916Z,52.47
2022-11-08T05:18:48.761Z,47.83
2022-11-08T05:20:11.804Z,52.88
2022-11-08T05:22:56.693Z,53.88
2022-11-08T05:24:01.629Z,47.70
2022-11-08T05:25:11.697Z,47.85
2022-11-08T05:26:14.966Z,46.33
2022-11-08T05:27:17.405Z,53.42
2022-11-08T05:28:20.103Z,48.88
2022-11-08T05:29:26.359Z,49.53
2022-11-08T05:30:29.687Z,52.30
2022-11-08T05:31:32.634Z,50.03
2022-11-08T05:32:37.020Z,49.47
2022-11-08T05:33:39.353Z,45.88
2022-11-08T05:34:42.097Z,46.78
2022-11-08T05:35:44.849Z,49.92
2022-11-08T05:36:47.267Z,44.63
2022-11-08T05:37:49.830Z,44.85
2022-11-08T05:38:52.261Z,46.00
2022-11-08T05:39:54.843Z,54.05
2022-11-08T05:41:08.530Z,60.35
2022-11-08T05:42:11.117Z,51.90
2022-11-08T05:43:13.906Z,53.78
2022-11-08T05:44:16.472Z,55.17
2022-11-08T05:45:18.900Z,50.28
2022-11-08T05:46:22.883Z,47.47
2022-11-08T05:47:25.512Z,50.67
2022-11-08T05:48:28.031Z,42.58
2022-11-08T05:49:30.511Z,46.95
2022-11-08T05:50:34.805Z,41.60
2022-11-08T05:51:40.574Z,33.20
2022-11-08T05:52:43.003Z,36.47
2022-11-08T05:53:47.382Z,29.77
2022-11-08T05:54:49.741Z,35.67
2022-11-08T05:55:58.457Z,38.78
2022-11-08T05:57:00.715Z,35.08
2022-11-08T05:58:07.812Z,42.40
2022-11-08T05:59:11.569Z,43.17
2022-11-08T06:00:15.372Z,43.33
2022-11-08T06:02:21.926Z,35.97
2022-11-08T06:03:24.673Z,36.25
2022-11-08T06:04:27.427Z,40.88
2022-11-08T06:05:30.036Z,34.60
2022-11-08T06:06:32.939Z,34.97
2022-11-08T06:07:36.179Z,34.95
2022-11-08T06:08:39.699Z,39.08
2022-11-08T06:09:51.110Z,37.58
2022-11-08T06:10:53.705Z,38.28
2022-11-08T06:11:56.037Z,37.45
2022-11-08T06:13:01.062Z,35.13
2022-11-08T06:14:03.582Z,42.67
2022-11-08T06:15:07.171Z,39.15
2022-11-08T06:16:15.491Z,44.80
2022-11-08T06:17:18.302Z,39.83
2022-11-08T06:18:20.915Z,39.85
2022-11-08T06:19:23.541Z,47.30
2022-11-08T06:20:26.109Z,63.95
2022-11-08T06:21:28.557Z,54.75
2022-11-08T06:22:32.783Z,46.05
2022-11-08T06:23:35.275Z,46.72
2022-11-08T06:24:37.813Z,46.78
2022-11-08T06:25:45.086Z,95.38
2022-11-08T06:26:50.329Z,84.38
2022-11-08T06:27:52.738Z,84.15
2022-11-08T06:28:55.072Z,64.00
2022-11-08T06:30:00.829Z,54.50
2022-11-08T06:31:04.194Z,59.92
2022-11-08T06:32:06.836Z,51.17
2022-11-08T06:33:09.614Z,40.95
2022-11-08T06:34:12.413Z,43.58
2022-11-08T06:35:14.873Z,39.60
2022-11-08T06:36:17.294Z,35.95
2022-11-08T06:37:20.010Z,41.42
2022-11-08T06:38:22.764Z,42.05
2022-11-08T06:39:25.191Z,43.17
2022-11-08T06:40:28.038Z,43.45
2022-11-08T06:41:30.600Z,41.90
2022-11-08T06:42:33.206Z,37.45
2022-11-08T06:43:35.495Z,37.22
2022-11-08T06:44:37.962Z,37.58
2022-11-08T06:45:41.191Z,40.08
2022-11-08T06:46:44.081Z,38.88
2022-11-08T06:47:46.752Z,41.25
2022-11-08T06:48:49.052Z,43.33
2022-11-08T06:49:51.763Z,37.85
2022-11-08T06:50:54.323Z,31.65
2022-11-08T06:51:56.899Z,31.40
2022-11-08T06:53:01.863Z,39.10
2022-11-08T06:54:08.798Z,35.28
2022-11-08T06:55:13.710Z,35.85
2022-11-08T06:56:16.381Z,36.17
2022-11-08T06:57:18.836Z,37.15
2022-11-08T06:58:21.638Z,35.65
2022-11-08T06:59:24.495Z,39.50
2022-11-08T07:00:27.349Z,38.80
2022-11-08T07:01:32.950Z,37.03
2022-11-08T07:02:35.813Z,37.00
2022-11-08T07:03:46.476Z,37.35
2022-11-08T07:04:51.701Z,41.08
2022-11-08T07:05:55.175Z,42.22
2022-11-08T07:06:57.792Z,44.50
2022-11-08T07:08:03.469Z,39.92
2022-11-08T07:09:05.908Z,39.28
2022-11-08T07:10:08.853Z,40.13
2022-11-08T07:11:11.598Z,43.58
2022-11-08T07:12:14.037Z,41.63
2022-11-08T07:13:16.824Z,40.45
2022-11-08T07:14:19.644Z,39.00
2022-11-08T07:15:24.420Z,40.00
2022-11-08T07:16:27.364Z,48.92
2022-11-08T07:17:34.313Z,52.88
2022-11-08T07:18:40.020Z,58.75
2022-11-08T07:19:42.558Z,58.58
2022-11-08T07:20:45.424Z,60.47
2022-11-08T07:21:48.510Z,63.58
2022-11-08T07:22:55.513Z,68.70
2022-11-08T07:23:57.930Z,61.63
2022-11-08T07:25:00.304Z,67.35
2022-11-08T07:26:09.068Z,66.10
2022-11-08T07:27:11.544Z,63.28
2022-11-08T07:28:18.311Z,57.90
2022-11-08T07:29:20.755Z,64.35
2022-11-08T07:30:23.468Z,55.10
2022-11-08T07:31:26.284Z,54.03
2022-11-08T07:32:28.863Z,52.60
2022-11-08T07:33:31.951Z,56.70
2022-11-08T07:34:34.476Z,44.78
2022-11-08T07:35:36.842Z,47.10
2022-11-08T07:36:42.972Z,48.92
2022-11-08T07:37:53.197Z,47.92
2022-11-08T07:38:56.386Z,46.85
2022-11-08T07:41:16.735Z,42.42
2022-11-08T07:42:19.449Z,42.97
2022-11-08T07:43:30.990Z,44.60
2022-11-08T07:45:21.841Z,46.75
2022-11-08T07:46:28.255Z,41.28
2022-11-08T07:47:38.231Z,42.67
2022-11-08T07:48:41.294Z,45.28
2022-11-08T07:49:44.038Z,45.40
2022-11-08T07:50:51.719Z,43.80
2022-11-08T07:51:55.139Z,48.95
2022-11-08T07:53:01.172Z,48.95
2022-11-08T07:54:06.829Z,45.00
2022-11-08T07:55:14.232Z,43.50
2022-11-08T07:56:16.528Z,52.17
2022-11-08T07:57:21.876Z,44.05
2022-11-08T07:58:25.243Z,45.63
2022-11-08T07:59:50.391Z,46.10
2022-11-08T08:01:03.648Z,42.88
2022-11-08T08:02:14.704Z,42.97
2022-11-08T08:03:27.542Z,41.47
2022-11-08T08:04:32.428Z,41.45
2022-11-08T08:05:39.166Z,38.22
2022-11-08T08:06:47.099Z,36.67
2022-11-08T08:07:53.615Z,41.85
2022-11-08T08:08:58.560Z,38.17
2022-11-08T08:10:00.811Z,43.42
2022-11-08T08:11:03.867Z,45.17
2022-11-08T08:12:13.860Z,44.40
2022-11-08T08:13:16.552Z,39.05
2022-11-08T08:14:53.222Z,40.60
2022-11-08T08:16:03.311Z,37.90
2022-11-08T08:17:05.792Z,46.20
2022-11-08T08:18:12.496Z,38.30
2022-11-08T08:19:19.029Z,37.67
2022-11-08T08:20:21.384Z,42.45
2022-11-08T08:21:24.238Z,35.15
2022-11-08T08:22:30.084Z,42.17
2022-11-08T08:23:33.156Z,41.40
2022-11-08T08:24:38.183Z,41.53
2022-11-08T08:25:44.146Z,38.53
2022-11-08T08:26:49.749Z,38.63
2022-11-08T08:27:58.652Z,41.50
2022-11-08T08:29:09.411Z,38.53
2022-11-08T08:30:25.672Z,36.05
2022-11-08T08:31:28.193Z,40.13
2022-11-08T08:32:31.627Z,38.28
2022-11-08T08:33:41.933Z,46.58
2022-11-08T08:34:53.429Z,41.30
2022-11-08T08:36:01.592Z,39.35
2022-11-08T08:37:09.816Z,41.05
2022-11-08T08:38:21.415Z,39.50
2022-11-08T08:39:23.792Z,36.75
2022-11-08T08:40:26.297Z,36.38
2022-11-08T08:41:28.869Z,42.20
2022-11-08T08:42:33.328Z,39.17
2022-11-08T08:43:39.743Z,41.33
2022-11-08T08:44:49.168Z,40.70
2022-11-08T08:46:02.015Z,36.28
2022-11-08T08:47:04.443Z,42.45
2022-11-08T08:48:09.686Z,40.58
2022-11-08T08:49:14.661Z,41.40
2022-11-08T08:50:20.049Z,37.42
2022-11-08T08:51:48.400Z,39.58
2022-11-08T08:53:04.414Z,42.05
2022-11-08T08:54:17.599Z,38.97
2022-11-08T08:55:31.343Z,37.45
2022-11-08T08:56:33.911Z,42.38
2022-11-08T08:58:01.857Z,41.38
2022-11-08T09:02:30.867Z,36.65
2022-11-08T09:03:45.915Z,34.65
2022-11-08T09:05:05.555Z,37.28
2022-11-08T09:06:19.232Z,36.83
2022-11-08T09:07:21.858Z,34.95
2022-11-08T09:08:25.966Z,36.42
2022-11-08T09:09:34.752Z,38.55
2022-11-08T09:10:44.532Z,42.03
2022-11-08T09:11:51.408Z,39.28
2022-11-08T09:12:54.348Z,39.92
2022-11-08T09:14:56.775Z,41.70
2022-11-08T09:16:11.035Z,32.38
2022-11-08T09:17:20.484Z,38.45
2022-11-08T09:18:23.701Z,32.45
2022-11-08T09:19:26.576Z,35.50
2022-11-08T09:20:29.294Z,38.75
2022-11-08T09:21:31.782Z,36.20
2022-11-08T09:22:34.340Z,35.13
2022-11-08T09:23:36.746Z,39.55
2022-11-08T09:24:39.511Z,37.40
2022-11-08T09:25:41.894Z,35.92
2022-11-08T09:26:44.490Z,38.92
2022-11-08T09:27:47.004Z,40.53
2022-11-08T09:28:50.136Z,41.40
2022-11-08T09:29:52.681Z,36.75
2022-11-08T09:30:56.571Z,40.88
2022-11-08T09:33:02.912Z,37.70
2022-11-08T09:34:05.369Z,42.13
2022-11-08T09:35:08.816Z,38.78
2022-11-08T09:36:14.264Z,40.00
2022-11-08T09:37:16.653Z,38.40
2022-11-08T09:38:19.270Z,39.60
2022-11-08T09:39:21.792Z,38.33
2022-11-08T09:40:31.784Z,32.53
2022-11-08T09:42:05.459Z,35.22
2022-11-08T09:43:14.506Z,35.00
2022-11-08T09:44:35.460Z,34.20
2022-11-08T09:45:47.163Z,38.08
2022-11-08T09:46:58.953Z,35.83
2022-11-08T09:48:05.532Z,35.80
2022-11-08T09:49:16.808Z,28.20
2022-11-08T09:50:47.276Z,33.67
2022-11-08T09:51:50.553Z,31.27
2022-11-08T09:53:15.555Z,34.20
2022-11-08T09:54:26.926Z,34.45
2022-11-08T09:55:37.353Z,34.97
2022-11-08T09:56:40.256Z,39.90
2022-11-08T09:58:19.966Z,42.17
2022-11-08T09:59:25.311Z,37.05
2022-11-08T10:00:29.088Z,36.33
2022-11-08T10:01:34.465Z,33.65
2022-11-08T10:02:37.194Z,34.47
2022-11-08T10:03:42.448Z,36.08
2022-11-08T10:04:50.648Z,37.22
2022-11-08T10:06:18.573Z,38.53
2022-11-08T10:07:42.942Z,36.75
2022-11-08T10:09:17.451Z,36.80
2022-11-08T10:10:41.128Z,30.98
2022-11-08T10:12:06.484Z,34.72
2022-11-08T10:13:29.671Z,32.45
2022-11-08T10:14:54.083Z,29.65
2022-11-08T10:16:07.093Z,31.45
2022-11-08T10:17:25.338Z,32.72
2022-11-08T10:18:55.224Z,31.45
2022-11-08T10:20:22.078Z,32.70
2022-11-08T10:21:39.557Z,31.17
2022-11-08T10:23:00.839Z,39.42
2022-11-08T10:24:13.548Z,37.13
2022-11-08T10:25:26.980Z,33.13
2022-11-08T10:26:47.905Z,33.50
2022-11-08T10:27:54.080Z,36.22
2022-11-08T10:29:22.119Z,31.15
2022-11-08T10:30:30.575Z,41.47
2022-11-08T10:31:36.353Z,34.60
2022-11-08T10:32:38.992Z,35.15
2022-11-08T10:33:56.691Z,35.35
2022-11-08T10:35:13.372Z,33.15
2022-11-08T10:37:18.324Z,37.03
2022-11-08T10:38:31.054Z,27.95
2022-11-08T10:39:41.806Z,28.63
2022-11-08T10:40:57.633Z,31.88
2022-11-08T10:42:08.397Z,34.78
2022-11-08T10:43:15.269Z,33.63
2022-11-08T10:44:24.551Z,37.30
2022-11-08T10:45:26.918Z,31.02
2022-11-08T10:46:48.206Z,32.67
2022-11-08T10:47:53.279Z,30.90
2022-11-08T10:49:05.470Z,36.90
2022-11-08T10:50:15.669Z,30.10
2022-11-08T10:51:17.987Z,29.90
2022-11-08T10:52:35.171Z,28.75
2022-11-08T10:53:44.667Z,31.20
2022-11-08T10:54:51.009Z,29.88
2022-11-08T10:56:03.272Z,31.80
2022-11-08T10:57:05.803Z,32.28
2022-11-08T10:58:39.774Z,32.88
2022-11-08T10:59:42.907Z,29.85
2022-11-08T11:01:06.491Z,32.22
2022-11-08T11:02:32.157Z,32.63
2022-11-08T11:03:34.734Z,34.70
2022-11-08T11:04:37.324Z,32.58
2022-11-08T11:05:57.916Z,27.88
2022-11-08T11:07:24.136Z,33.58
2022-11-08T11:08:27.713Z,34.75
2022-11-08T11:09:30.497Z,28.92
2022-11-08T11:11:22.856Z,27.42
2022-11-08T11:12:25.840Z,30.17
2022-11-08T11:14:38.043Z,31.10
2022-11-08T11:15:56.482Z,29.70
2022-11-08T11:17:07.722Z,32.17
2022-11-08T11:18:22.518Z,29.98
2022-11-08T11:19:28.935Z,28.92
2022-11-08T11:20:31.795Z,26.77
2022-11-08T11:21:39.462Z,31.13
2022-11-08T11:22:47.559Z,29.67
2022-11-08T11:25:14.592Z,31.58
2022-11-08T11:26:34.813Z,30.42
2022-11-08T11:27:38.523Z,29.98
2022-11-08T11:29:09.476Z,29.08
2022-11-08T11:30:25.909Z,31.33
2022-11-08T11:31:28.360Z,34.97
2022-11-08T11:32:36.709Z,29.88
2022-11-08T11:33:48.590Z,35.47
2022-11-08T11:34:55.537Z,27.83
2022-11-08T11:36:13.808Z,29.45
2022-11-08T11:37:43.489Z,28.73
2022-11-08T11:39:07.098Z,31.77
2022-11-08T11:40:34.304Z,31.73
2022-11-08T11:41:43.376Z,31.13
2022-11-08T11:42:54.663Z,38.92
2022-11-08T11:44:05.165Z,40.78
2022-11-08T11:45:13.226Z,42.25
2022-11-08T11:46:24.001Z,46.95
2022-11-08T11:47:33.764Z,47.47
2022-11-08T11:49:07.077Z,45.10
2022-11-08T11:50:36.742Z,40.90
2022-11-08T11:51:39.320Z,55.22
2022-11-08T11:52:41.718Z,51.50
2022-11-08T11:53:48.580Z,43.17
2022-11-08T11:54:51.498Z,39.00
2022-11-08T11:56:23.491Z,36.65
2022-11-08T11:57:47.777Z,38.22
2022-11-08T11:59:09.186Z,45.83
2022-11-08T12:00:15.135Z,40.70
2022-11-08T12:01:33.098Z,35.88
2022-11-08T12:03:09.950Z,33.75
2022-11-08T12:04:24.760Z,32.05
2022-11-08T12:05:46.272Z,33.28
2022-11-08T12:07:27.215Z,33.70
2022-11-08T12:08:50.537Z,33.90
2022-11-08T12:10:01.865Z,31.15
2022-11-08T12:11:28.904Z,32.83
2022-11-08T12:13:16.748Z,33.20
2022-11-08T12:14:40.821Z,32.08
2022-11-08T12:15:50.450Z,34.20
2022-11-08T12:17:04.657Z,32.00
2022-11-08T12:18:57.367Z,33.20
2022-11-08T12:20:26.791Z,32.78
2022-11-08T12:21:52.352Z,32.85
2022-11-08T12:22:57.450Z,33.65
2022-11-08T12:24:18.137Z,33.25
2022-11-08T12:25:32.908Z,31.20
2022-11-08T12:26:45.026Z,32.88
2022-11-08T12:27:59.866Z,28.92
2022-11-08T12:29:24.290Z,29.48
2022-11-08T12:30:40.704Z,33.60
2022-11-08T12:32:08.007Z,37.33
2022-11-08T12:33:31.756Z,37.40
2022-11-08T12:35:11.464Z,33.92
2022-11-08T12:36:25.820Z,37.25
2022-11-08T12:38:05.942Z,33.13
2022-11-08T12:39:24.278Z,33.85
2022-11-08T12:40:27.379Z,32.63
2022-11-08T12:42:34.996Z,36.05
2022-11-08T12:43:49.476Z,33.95
2022-11-08T12:45:29.360Z,36.22
2022-11-08T12:46:43.539Z,34.47
2022-11-08T12:48:20.928Z,32.83
2022-11-08T12:49:32.718Z,34.22
2022-11-08T12:51:02.064Z,33.50
2022-11-08T12:52:26.440Z,29.58
2022-11-08T12:53:54.049Z,31.58
2022-11-08T12:55:03.237Z,32.20
2022-11-08T12:56:38.668Z,33.10
2022-11-08T12:57:51.406Z,33.80
2022-11-08T12:58:57.785Z,36.80
2022-11-08T13:00:30.639Z,29.73
2022-11-08T13:01:37.281Z,29.13
2022-11-08T13:02:54.856Z,30.92
2022-11-08T13:05:22.624Z,29.45
2022-11-08T13:06:28.519Z,30.02
2022-11-08T13:07:39.713Z,34.60
2022-11-08T13:09:01.618Z,33.08
2022-11-08T13:10:52.434Z,33.92
2022-11-08T13:11:58.541Z,33.83
2022-11-08T13:13:20.383Z,37.72
2022-11-08T13:14:24.778Z,36.63
2022-11-08T13:16:42.275Z,34.75
2022-11-08T13:18:06.992Z,34.63
2022-11-08T13:19:28.831Z,33.60
2022-11-08T13:20:45.023Z,34.25
2022-11-08T13:21:48.300Z,31.63
2022-11-08T13:22:58.386Z,35.03
2022-11-08T13:24:14.002Z,36.42
2022-11-08T13:25:18.304Z,47.65
2022-11-08T13:26:26.339Z,40.88
2022-11-08T13:27:38.733Z,37.75
2022-11-08T13:28:43.737Z,39.22
2022-11-08T13:29:48.294Z,36.05
2022-11-08T13:31:02.249Z,37.75
2022-11-08T13:32:18.281Z,37.10
2022-11-08T13:33:30.616Z,33.63
2022-11-08T13:34:56.686Z,34.63
2022-11-08T13:36:27.722Z,35.67
2022-11-08T13:37:52.512Z,39.35
2022-11-08T13:39:27.777Z,37.05
2022-11-08T13:40:55.854Z,38.03
2022-11-08T13:42:17.362Z,39.53
2022-11-08T13:43:36.978Z,36.22
2022-11-08T13:45:13.661Z,37.22
2022-11-08T13:46:28.289Z,36.03
2022-11-08T13:47:33.736Z,39.38
2022-11-08T13:48:43.156Z,44.53
2022-11-08T13:49:46.603Z,41.22
2022-11-08T13:51:01.306Z,44.72
2022-11-08T13:52:41.141Z,44.75
2022-11-08T13:53:51.690Z,43.83
2022-11-08T13:56:17.443Z,39.78
2022-11-08T13:57:40.581Z,35.67
2022-11-08T13:58:47.544Z,40.83
2022-11-08T13:59:53.503Z,42.03
2022-11-08T14:00:58.545Z,40.85
2022-11-08T14:02:00.945Z,45.30
2022-11-08T14:03:33.482Z,46.35
2022-11-08T14:04:42.289Z,40.25
2022-11-08T14:05:50.333Z,43.17
2022-11-08T14:07:24.960Z,39.35
2022-11-08T14:08:41.901Z,43.08
2022-11-08T14:10:23.330Z,39.25
2022-11-08T14:11:31.315Z,45.13
2022-11-08T14:12:45.618Z,43.42
2022-11-08T14:13:59.717Z,40.08
2022-11-08T14:15:14.887Z,43.25
2022-11-08T14:16:29.447Z,39.92
2022-11-08T14:17:48.325Z,41.70
2022-11-08T14:19:00.992Z,42.05
2022-11-08T14:20:26.920Z,44.20
2022-11-08T14:21:30.751Z,41.88
2022-11-08T14:22:38.032Z,48.97
2022-11-08T14:23:42.501Z,45.88
2022-11-08T14:25:27.905Z,42.88
2022-11-08T14:26:44.757Z,45.38
2022-11-08T14:27:47.162Z,42.22
2022-11-08T14:28:51.986Z,42.28
2022-11-08T14:30:01.507Z,44.40
2022-11-08T14:31:07.480Z,45.72
2022-11-08T14:32:20.009Z,45.10
2022-11-08T14:33:30.573Z,44.38
2022-11-08T14:34:38.538Z,47.22
2022-11-08T14:35:41.171Z,42.67
2022-11-08T14:36:45.167Z,44.75
2022-11-08T14:37:48.910Z,44.85
2022-11-08T14:39:09.290Z,45.35
2022-11-08T14:40:18.608Z,43.75
2022-11-08T14:41:27.166Z,46.83
2022-11-08T14:42:29.621Z,44.08
2022-11-08T14:43:42.735Z,41.38
2022-11-08T14:44:46.304Z,44.17
2022-11-08T14:45:51.288Z,43.72
2022-11-08T14:46:55.882Z,47.35
2022-11-08T14:48:04.368Z,45.47
2022-11-08T14:49:18.458Z,43.95
2022-11-08T14:50:23.558Z,43.95
2022-11-08T14:51:47.261Z,47.15
2022-11-08T14:52:49.948Z,46.53
2022-11-08T14:53:57.259Z,46.67
2022-11-08T14:55:14.161Z,49.53
2022-11-08T14:56:18.840Z,50.08
2022-11-08T14:57:37.240Z,43.40
2022-11-08T14:58:40.226Z,50.53
2022-11-08T15:00:00.670Z,44.38
2022-11-08T15:01:11.436Z,47.67
2022-11-08T15:02:20.859Z,45.30